sensor_id;sensor_type;location;lat;lon;timestamp;temperature;humidity
66670;DHT22;53568;52.164;4.472;2022-07-29T00:00:12;18.69;61.51
66670;DHT22;53568;52.164;4.472;2022-07-29T00:02:37;18.67;61.43
66670;DHT22;53568;52.164;4.472;2022-07-29T00:05:04;18.77;61.08
66670;DHT22;53568;52.164;4.472;2022-07-29T00:07:31;18.79;60.72
66670;DHT22;53568;52.164;4.472;2022-07-29T00:09:57;18.76;60.90
66670;DHT22;53568;52.164;4.472;2022-07-29T00:12:24;18.75;60.85
66670;DHT22;53568;52.164;4.472;2022-07-29T00:14:50;18.63;61.21
66670;DHT22;53568;52.164;4.472;2022-07-29T00:17:16;18.69;61.02
66670;DHT22;53568;52.164;4.472;2022-07-29T00:19:42;18.69;61.16
66670;DHT22;53568;52.164;4.472;2022-07-29T00:22:07;18.73;60.77
66670;DHT22;53568;52.164;4.472;2022-07-29T00:24:33;18.70;60.80
66670;DHT22;53568;52.164;4.472;2022-07-29T00:26:58;18.67;61.00
66670;DHT22;53568;52.164;4.472;2022-07-29T00:29:24;18.62;61.25
66670;DHT22;53568;52.164;4.472;2022-07-29T00:31:50;18.62;61.24
66670;DHT22;53568;52.164;4.472;2022-07-29T00:34:16;18.59;61.13
66670;DHT22;53568;52.164;4.472;2022-07-29T00:37:00;18.52;61.48
66670;DHT22;53568;52.164;4.472;2022-07-29T00:39:25;18.46;61.73
66670;DHT22;53568;52.164;4.472;2022-07-29T00:41:51;18.42;61.78
66670;DHT22;53568;52.164;4.472;2022-07-29T00:44:16;18.38;62.04
66670;DHT22;53568;52.164;4.472;2022-07-29T00:46:42;18.32;62.28
66670;DHT22;53568;52.164;4.472;2022-07-29T00:49:07;18.31;62.29
66670;DHT22;53568;52.164;4.472;2022-07-29T00:51:37;18.39;61.96
66670;DHT22;53568;52.164;4.472;2022-07-29T00:54:04;18.31;61.97
66670;DHT22;53568;52.164;4.472;2022-07-29T00:56:31;18.36;61.73
66670;DHT22;53568;52.164;4.472;2022-07-29T00:58:58;18.41;61.65
66670;DHT22;53568;52.164;4.472;2022-07-29T01:01:25;18.33;61.75
66670;DHT22;53568;52.164;4.472;2022-07-29T01:03:50;18.25;61.67
66670;DHT22;53568;52.164;4.472;2022-07-29T01:06:18;18.16;61.92
66670;DHT22;53568;52.164;4.472;2022-07-29T01:08:45;18.21;61.68
66670;DHT22;53568;52.164;4.472;2022-07-29T01:11:13;18.13;61.70
66670;DHT22;53568;52.164;4.472;2022-07-29T01:13:41;18.08;62.20
66670;DHT22;53568;52.164;4.472;2022-07-29T01:16:15;18.11;61.75
66670;DHT22;53568;52.164;4.472;2022-07-29T01:18:46;18.12;61.71
66670;DHT22;53568;52.164;4.472;2022-07-29T01:26:59;17.95;62.09
66670;DHT22;53568;52.164;4.472;2022-07-29T01:29:30;17.81;62.28
66670;DHT22;53568;52.164;4.472;2022-07-29T01:32:13;17.95;62.07
66670;DHT22;53568;52.164;4.472;2022-07-29T01:34:57;18.02;61.95
66670;DHT22;53568;52.164;4.472;2022-07-29T01:39:56;18.12;61.47
66670;DHT22;53568;52.164;4.472;2022-07-29T01:44:55;18.18;61.25
66670;DHT22;53568;52.164;4.472;2022-07-29T01:47:37;18.22;61.34
66670;DHT22;53568;52.164;4.472;2022-07-29T01:50:08;18.24;61.40
66670;DHT22;53568;52.164;4.472;2022-07-29T01:52:47;18.12;61.70
66670;DHT22;53568;52.164;4.472;2022-07-29T01:55:20;18.06;61.82
66670;DHT22;53568;52.164;4.472;2022-07-29T01:57:48;17.90;62.25
66670;DHT22;53568;52.164;4.472;2022-07-29T02:00:14;17.91;62.29
66670;DHT22;53568;52.164;4.472;2022-07-29T02:02:43;17.95;62.04
66670;DHT22;53568;52.164;4.472;2022-07-29T02:05:14;17.97;62.31
66670;DHT22;53568;52.164;4.472;2022-07-29T02:07:43;17.98;61.86
66670;DHT22;53568;52.164;4.472;2022-07-29T02:10:11;18.02;61.89
66670;DHT22;53568;52.164;4.472;2022-07-29T02:12:39;18.06;61.97
66670;DHT22;53568;52.164;4.472;2022-07-29T02:15:08;18.04;62.30
66670;DHT22;53568;52.164;4.472;2022-07-29T02:17:45;18.09;62.73
66670;DHT22;53568;52.164;4.472;2022-07-29T02:20:12;18.09;62.84
66670;DHT22;53568;52.164;4.472;2022-07-29T02:22:39;18.04;63.22
66670;DHT22;53568;52.164;4.472;2022-07-29T02:25:10;18.11;63.14
66670;DHT22;53568;52.164;4.472;2022-07-29T02:27:39;18.02;63.62
66670;DHT22;53568;52.164;4.472;2022-07-29T02:30:07;17.92;64.30
66670;DHT22;53568;52.164;4.472;2022-07-29T02:32:37;17.87;64.82
66670;DHT22;53568;52.164;4.472;2022-07-29T02:35:04;17.84;64.85
66670;DHT22;53568;52.164;4.472;2022-07-29T02:37:30;17.84;65.12
66670;DHT22;53568;52.164;4.472;2022-07-29T02:39:58;17.78;65.20
66670;DHT22;53568;52.164;4.472;2022-07-29T02:42:26;17.74;65.64
66670;DHT22;53568;52.164;4.472;2022-07-29T02:44:53;17.71;65.64
66670;DHT22;53568;52.164;4.472;2022-07-29T02:47:30;17.67;65.90
66670;DHT22;53568;52.164;4.472;2022-07-29T02:50:26;17.73;65.74
66670;DHT22;53568;52.164;4.472;2022-07-29T02:53:02;17.73;65.81
66670;DHT22;53568;52.164;4.472;2022-07-29T02:55:37;17.66;65.98
66670;DHT22;53568;52.164;4.472;2022-07-29T02:58:13;17.68;65.82
66670;DHT22;53568;52.164;4.472;2022-07-29T03:00:42;17.64;65.86
66670;DHT22;53568;52.164;4.472;2022-07-29T03:03:13;17.61;66.10
66670;DHT22;53568;52.164;4.472;2022-07-29T03:05:40;17.71;65.73
66670;DHT22;53568;52.164;4.472;2022-07-29T03:08:09;17.71;65.71
66670;DHT22;53568;52.164;4.472;2022-07-29T03:10:38;17.74;65.65
66670;DHT22;53568;52.164;4.472;2022-07-29T03:13:05;17.77;65.44
66670;DHT22;53568;52.164;4.472;2022-07-29T03:15:31;17.71;65.73
66670;DHT22;53568;52.164;4.472;2022-07-29T03:17:58;17.71;65.74
66670;DHT22;53568;52.164;4.472;2022-07-29T03:20:25;17.74;65.65
66670;DHT22;53568;52.164;4.472;2022-07-29T03:22:50;17.66;66.04
66670;DHT22;53568;52.164;4.472;2022-07-29T03:25:19;17.66;66.00
66670;DHT22;53568;52.164;4.472;2022-07-29T03:27:46;17.68;66.09
66670;DHT22;53568;52.164;4.472;2022-07-29T03:30:13;17.67;65.93
66670;DHT22;53568;52.164;4.472;2022-07-29T03:32:39;17.67;65.94
66670;DHT22;53568;52.164;4.472;2022-07-29T03:35:06;17.63;66.05
66670;DHT22;53568;52.164;4.472;2022-07-29T03:37:32;17.61;66.02
66670;DHT22;53568;52.164;4.472;2022-07-29T03:39:58;17.53;66.20
66670;DHT22;53568;52.164;4.472;2022-07-29T03:42:28;17.48;66.66
66670;DHT22;53568;52.164;4.472;2022-07-29T03:44:58;17.44;66.75
66670;DHT22;53568;52.164;4.472;2022-07-29T03:47:27;17.47;66.64
66670;DHT22;53568;52.164;4.472;2022-07-29T03:49:59;17.51;66.44
66670;DHT22;53568;52.164;4.472;2022-07-29T03:52:25;17.48;66.32
66670;DHT22;53568;52.164;4.472;2022-07-29T03:54:51;17.50;66.67
66670;DHT22;53568;52.164;4.472;2022-07-29T03:57:20;17.63;66.06
66670;DHT22;53568;52.164;4.472;2022-07-29T03:59:51;17.74;65.47
66670;DHT22;53568;52.164;4.472;2022-07-29T04:02:17;17.73;65.44
66670;DHT22;53568;52.164;4.472;2022-07-29T04:04:43;17.68;65.76
66670;DHT22;53568;52.164;4.472;2022-07-29T04:07:14;17.68;65.97
66670;DHT22;53568;52.164;4.472;2022-07-29T04:09:40;17.73;65.65
66670;DHT22;53568;52.164;4.472;2022-07-29T04:12:06;17.71;65.62
66670;DHT22;53568;52.164;4.472;2022-07-29T04:14:34;17.67;65.86
66670;DHT22;53568;52.164;4.472;2022-07-29T04:17:04;17.66;65.99
66670;DHT22;53568;52.164;4.472;2022-07-29T04:19:30;17.67;66.01
66670;DHT22;53568;52.164;4.472;2022-07-29T04:21:57;17.64;65.78
66670;DHT22;53568;52.164;4.472;2022-07-29T04:24:22;17.54;66.23
66670;DHT22;53568;52.164;4.472;2022-07-29T04:26:48;17.54;66.23
66670;DHT22;53568;52.164;4.472;2022-07-29T04:29:14;17.47;66.50
66670;DHT22;53568;52.164;4.472;2022-07-29T04:31:43;17.48;66.33
66670;DHT22;53568;52.164;4.472;2022-07-29T04:34:10;17.38;66.59
66670;DHT22;53568;52.164;4.472;2022-07-29T04:36:35;17.34;66.67
66670;DHT22;53568;52.164;4.472;2022-07-29T04:39:02;17.38;66.79
66670;DHT22;53568;52.164;4.472;2022-07-29T04:41:28;17.36;66.72
66670;DHT22;53568;52.164;4.472;2022-07-29T04:43:54;17.36;66.68
66670;DHT22;53568;52.164;4.472;2022-07-29T04:46:20;17.37;66.67
66670;DHT22;53568;52.164;4.472;2022-07-29T04:48:46;17.37;66.54
66670;DHT22;53568;52.164;4.472;2022-07-29T04:51:13;17.30;66.74
66670;DHT22;53568;52.164;4.472;2022-07-29T04:53:38;17.36;66.74
66670;DHT22;53568;52.164;4.472;2022-07-29T04:56:04;17.41;66.53
66670;DHT22;53568;52.164;4.472;2022-07-29T04:58:30;17.47;66.20
66670;DHT22;53568;52.164;4.472;2022-07-29T05:00:55;17.50;66.02
66670;DHT22;53568;52.164;4.472;2022-07-29T05:03:21;17.58;65.68
66670;DHT22;53568;52.164;4.472;2022-07-29T05:05:46;17.67;65.56
66670;DHT22;53568;52.164;4.472;2022-07-29T05:08:12;17.77;65.04
66670;DHT22;53568;52.164;4.472;2022-07-29T05:10:37;17.85;64.72
66670;DHT22;53568;52.164;4.472;2022-07-29T05:13:07;17.85;64.61
66670;DHT22;53568;52.164;4.472;2022-07-29T05:15:33;17.88;64.66
66670;DHT22;53568;52.164;4.472;2022-07-29T05:18:00;17.85;64.65
66670;DHT22;53568;52.164;4.472;2022-07-29T05:20:25;17.92;64.67
66670;DHT22;53568;52.164;4.472;2022-07-29T05:22:56;17.73;65.16
66670;DHT22;53568;52.164;4.472;2022-07-29T05:25:24;17.87;64.75
66670;DHT22;53568;52.164;4.472;2022-07-29T05:27:49;17.82;64.79
66670;DHT22;53568;52.164;4.472;2022-07-29T05:30:15;17.87;64.78
66670;DHT22;53568;52.164;4.472;2022-07-29T05:32:40;17.85;64.91
66670;DHT22;53568;52.164;4.472;2022-07-29T05:35:06;17.87;65.02
66670;DHT22;53568;52.164;4.472;2022-07-29T05:37:33;17.95;65.08
66670;DHT22;53568;52.164;4.472;2022-07-29T05:39:58;18.11;64.77
66670;DHT22;53568;52.164;4.472;2022-07-29T05:42:25;18.32;64.48
66670;DHT22;53568;52.164;4.472;2022-07-29T05:44:51;18.48;63.76
66670;DHT22;53568;52.164;4.472;2022-07-29T05:47:17;18.62;63.42
66670;DHT22;53568;52.164;4.472;2022-07-29T05:49:43;18.49;63.50
66670;DHT22;53568;52.164;4.472;2022-07-29T05:52:08;18.69;62.44
66670;DHT22;53568;52.164;4.472;2022-07-29T05:54:34;18.55;62.87
66670;DHT22;53568;52.164;4.472;2022-07-29T05:57:00;18.57;63.14
66670;DHT22;53568;52.164;4.472;2022-07-29T05:59:26;18.66;62.77
66670;DHT22;53568;52.164;4.472;2022-07-29T06:01:51;18.51;63.34
66670;DHT22;53568;52.164;4.472;2022-07-29T06:04:17;18.51;63.23
66670;DHT22;53568;52.164;4.472;2022-07-29T06:06:42;18.69;62.56
66670;DHT22;53568;52.164;4.472;2022-07-29T06:09:08;18.49;62.62
66670;DHT22;53568;52.164;4.472;2022-07-29T06:11:33;18.43;63.04
66670;DHT22;53568;52.164;4.472;2022-07-29T06:13:59;18.51;63.28
66670;DHT22;53568;52.164;4.472;2022-07-29T06:16:24;18.48;63.17
66670;DHT22;53568;52.164;4.472;2022-07-29T06:18:50;18.33;63.31
66670;DHT22;53568;52.164;4.472;2022-07-29T06:21:15;18.48;63.30
66670;DHT22;53568;52.164;4.472;2022-07-29T06:23:41;18.55;62.69
66670;DHT22;53568;52.164;4.472;2022-07-29T06:26:06;18.59;62.63
66670;DHT22;53568;52.164;4.472;2022-07-29T06:28:32;18.57;62.82
66670;DHT22;53568;52.164;4.472;2022-07-29T06:30:59;18.67;62.84
66670;DHT22;53568;52.164;4.472;2022-07-29T06:33:24;18.83;62.42
66670;DHT22;53568;52.164;4.472;2022-07-29T06:35:50;18.99;61.78
66670;DHT22;53568;52.164;4.472;2022-07-29T06:38:15;18.96;62.06
66670;DHT22;53568;52.164;4.472;2022-07-29T06:40:45;19.13;61.15
66670;DHT22;53568;52.164;4.472;2022-07-29T06:43:35;19.26;61.25
66670;DHT22;53568;52.164;4.472;2022-07-29T06:46:05;19.34;61.01
66670;DHT22;53568;52.164;4.472;2022-07-29T06:48:32;19.24;60.92
66670;DHT22;53568;52.164;4.472;2022-07-29T06:50:59;19.23;60.93
66670;DHT22;53568;52.164;4.472;2022-07-29T06:53:24;19.04;61.82
66670;DHT22;53568;52.164;4.472;2022-07-29T06:55:50;18.99;61.82
66670;DHT22;53568;52.164;4.472;2022-07-29T06:58:16;19.04;61.94
66670;DHT22;53568;52.164;4.472;2022-07-29T07:00:44;19.11;61.90
66670;DHT22;53568;52.164;4.472;2022-07-29T07:03:10;18.99;62.56
66670;DHT22;53568;52.164;4.472;2022-07-29T07:05:36;18.96;63.08
66670;DHT22;53568;52.164;4.472;2022-07-29T07:08:02;19.14;62.42
66670;DHT22;53568;52.164;4.472;2022-07-29T07:10:28;19.14;62.44
66670;DHT22;53568;52.164;4.472;2022-07-29T07:13:02;19.16;62.54
66670;DHT22;53568;52.164;4.472;2022-07-29T07:15:28;19.13;62.17
66670;DHT22;53568;52.164;4.472;2022-07-29T07:17:54;19.07;62.67
66670;DHT22;53568;52.164;4.472;2022-07-29T07:20:20;19.10;62.80
66670;DHT22;53568;52.164;4.472;2022-07-29T07:22:45;19.20;62.80
66670;DHT22;53568;52.164;4.472;2022-07-29T07:25:12;18.97;63.82
66670;DHT22;53568;52.164;4.472;2022-07-29T07:27:37;18.92;64.30
66670;DHT22;53568;52.164;4.472;2022-07-29T07:30:08;19.14;63.65
66670;DHT22;53568;52.164;4.472;2022-07-29T07:32:34;19.20;63.36
66670;DHT22;53568;52.164;4.472;2022-07-29T07:35:00;19.24;63.48
66670;DHT22;53568;52.164;4.472;2022-07-29T07:37:26;19.33;63.02
66670;DHT22;53568;52.164;4.472;2022-07-29T07:39:52;19.24;63.45
66670;DHT22;53568;52.164;4.472;2022-07-29T07:42:18;19.04;64.46
66670;DHT22;53568;52.164;4.472;2022-07-29T07:44:44;19.00;64.61
66670;DHT22;53568;52.164;4.472;2022-07-29T07:47:14;19.14;64.50
66670;DHT22;53568;52.164;4.472;2022-07-29T07:49:40;19.28;63.62
66670;DHT22;53568;52.164;4.472;2022-07-29T07:52:06;19.33;63.59
66670;DHT22;53568;52.164;4.472;2022-07-29T07:54:31;19.41;64.19
66670;DHT22;53568;52.164;4.472;2022-07-29T07:56:57;19.68;62.87
66670;DHT22;53568;52.164;4.472;2022-07-29T07:59:23;19.77;62.85
66670;DHT22;53568;52.164;4.472;2022-07-29T08:01:49;19.70;62.68
66670;DHT22;53568;52.164;4.472;2022-07-29T08:04:14;19.57;63.20
66670;DHT22;53568;52.164;4.472;2022-07-29T08:06:40;19.41;63.30
66670;DHT22;53568;52.164;4.472;2022-07-29T08:09:06;19.37;63.39
66670;DHT22;53568;52.164;4.472;2022-07-29T08:11:31;19.47;63.43
66670;DHT22;53568;52.164;4.472;2022-07-29T08:13:57;19.43;63.38
66670;DHT22;53568;52.164;4.472;2022-07-29T08:16:23;19.61;63.29
66670;DHT22;53568;52.164;4.472;2022-07-29T08:18:51;19.70;61.65
66670;DHT22;53568;52.164;4.472;2022-07-29T08:21:17;19.74;62.17
66670;DHT22;53568;52.164;4.472;2022-07-29T08:23:44;19.88;62.09
66670;DHT22;53568;52.164;4.472;2022-07-29T08:26:19;19.77;61.86
66670;DHT22;53568;52.164;4.472;2022-07-29T08:28:46;19.84;62.05
66670;DHT22;53568;52.164;4.472;2022-07-29T08:31:15;20.14;61.57
66670;DHT22;53568;52.164;4.472;2022-07-29T08:33:42;20.28;60.99
66670;DHT22;53568;52.164;4.472;2022-07-29T08:36:08;20.49;60.69
66670;DHT22;53568;52.164;4.472;2022-07-29T08:38:33;20.61;60.87
66670;DHT22;53568;52.164;4.472;2022-07-29T08:41:02;20.85;59.56
66670;DHT22;53568;52.164;4.472;2022-07-29T08:43:28;20.75;59.81
66670;DHT22;53568;52.164;4.472;2022-07-29T08:45:54;20.68;59.89
66670;DHT22;53568;52.164;4.472;2022-07-29T08:48:23;20.68;59.70
66670;DHT22;53568;52.164;4.472;2022-07-29T08:50:54;20.68;60.00
66670;DHT22;53568;52.164;4.472;2022-07-29T08:53:26;20.86;58.51
66670;DHT22;53568;52.164;4.472;2022-07-29T08:55:52;20.97;58.57
66670;DHT22;53568;52.164;4.472;2022-07-29T08:58:25;21.16;58.18
66670;DHT22;53568;52.164;4.472;2022-07-29T09:00:54;21.28;58.26
66670;DHT22;53568;52.164;4.472;2022-07-29T09:03:30;21.27;58.32
66670;DHT22;53568;52.164;4.472;2022-07-29T09:05:58;21.16;57.62
66670;DHT22;53568;52.164;4.472;2022-07-29T09:08:25;21.11;58.13
66670;DHT22;53568;52.164;4.472;2022-07-29T09:10:51;21.26;58.18
66670;DHT22;53568;52.164;4.472;2022-07-29T09:13:17;21.33;57.94
66670;DHT22;53568;52.164;4.472;2022-07-29T09:15:44;21.24;57.99
66670;DHT22;53568;52.164;4.472;2022-07-29T09:18:10;21.37;57.11
66670;DHT22;53568;52.164;4.472;2022-07-29T09:20:36;21.34;56.97
66670;DHT22;53568;52.164;4.472;2022-07-29T09:23:20;21.36;57.11
66670;DHT22;53568;52.164;4.472;2022-07-29T09:25:45;21.65;56.96
66670;DHT22;53568;52.164;4.472;2022-07-29T09:28:16;21.74;55.42
66670;DHT22;53568;52.164;4.472;2022-07-29T09:30:53;21.70;55.38
66670;DHT22;53568;52.164;4.472;2022-07-29T09:33:20;21.84;55.27
66670;DHT22;53568;52.164;4.472;2022-07-29T09:35:46;21.84;55.88
66670;DHT22;53568;52.164;4.472;2022-07-29T09:38:25;21.90;55.05
66670;DHT22;53568;52.164;4.472;2022-07-29T09:41:00;21.95;55.65
66670;DHT22;53568;52.164;4.472;2022-07-29T09:43:32;21.77;55.78
66670;DHT22;53568;52.164;4.472;2022-07-29T09:46:12;21.88;55.81
66670;DHT22;53568;52.164;4.472;2022-07-29T09:48:40;22.18;55.07
66670;DHT22;53568;52.164;4.472;2022-07-29T09:51:25;22.21;55.07
66670;DHT22;53568;52.164;4.472;2022-07-29T09:54:29;22.34;54.53
66670;DHT22;53568;52.164;4.472;2022-07-29T09:57:07;22.41;53.39
66670;DHT22;53568;52.164;4.472;2022-07-29T10:00:03;22.68;53.05
66670;DHT22;53568;52.164;4.472;2022-07-29T10:02:36;22.59;49.98
66670;DHT22;53568;52.164;4.472;2022-07-29T10:05:29;22.65;50.91
66670;DHT22;53568;52.164;4.472;2022-07-29T10:08:25;22.82;50.35
66670;DHT22;53568;52.164;4.472;2022-07-29T10:11:34;22.80;50.76
66670;DHT22;53568;52.164;4.472;2022-07-29T10:14:21;22.96;50.71
66670;DHT22;53568;52.164;4.472;2022-07-29T10:16:50;22.98;50.69
66670;DHT22;53568;52.164;4.472;2022-07-29T10:19:16;22.99;50.66
66670;DHT22;53568;52.164;4.472;2022-07-29T10:21:52;22.88;49.95
66670;DHT22;53568;52.164;4.472;2022-07-29T10:24:18;22.89;49.26
66670;DHT22;53568;52.164;4.472;2022-07-29T10:26:44;22.85;48.45
66670;DHT22;53568;52.164;4.472;2022-07-29T10:29:28;23.03;48.67
66670;DHT22;53568;52.164;4.472;2022-07-29T10:32:35;22.99;49.15
66670;DHT22;53568;52.164;4.472;2022-07-29T10:44:13;23.03;50.19
66670;DHT22;53568;52.164;4.472;2022-07-29T10:46:47;23.00;49.96
66670;DHT22;53568;52.164;4.472;2022-07-29T10:49:29;23.04;51.14
66670;DHT22;53568;52.164;4.472;2022-07-29T10:51:59;23.20;50.45
66670;DHT22;53568;52.164;4.472;2022-07-29T10:57:29;23.37;49.48
66670;DHT22;53568;52.164;4.472;2022-07-29T11:02:54;23.10;48.86
66670;DHT22;53568;52.164;4.472;2022-07-29T11:05:24;23.27;46.91
66670;DHT22;53568;52.164;4.472;2022-07-29T11:10:53;23.14;48.26
66670;DHT22;53568;52.164;4.472;2022-07-29T11:13:52;23.09;48.89
66670;DHT22;53568;52.164;4.472;2022-07-29T11:16:21;23.34;48.73
66670;DHT22;53568;52.164;4.472;2022-07-29T11:21:48;23.77;46.86
66670;DHT22;53568;52.164;4.472;2022-07-29T11:24:22;23.75;46.05
66670;DHT22;53568;52.164;4.472;2022-07-29T11:27:15;23.61;47.99
66670;DHT22;53568;52.164;4.472;2022-07-29T11:29:58;23.77;47.34
66670;DHT22;53568;52.164;4.472;2022-07-29T11:32:42;23.63;47.95
66670;DHT22;53568;52.164;4.472;2022-07-29T11:35:23;23.68;46.92
66670;DHT22;53568;52.164;4.472;2022-07-29T11:38:24;23.64;45.68
66670;DHT22;53568;52.164;4.472;2022-07-29T11:41:25;23.66;50.14
66670;DHT22;53568;52.164;4.472;2022-07-29T11:43:54;23.60;50.90
66670;DHT22;53568;52.164;4.472;2022-07-29T11:49:07;23.51;51.84
66670;DHT22;53568;52.164;4.472;2022-07-29T11:51:37;23.54;51.35
66670;DHT22;53568;52.164;4.472;2022-07-29T11:54:06;23.46;51.63
66670;DHT22;53568;52.164;4.472;2022-07-29T11:56:39;23.46;52.67
66670;DHT22;53568;52.164;4.472;2022-07-29T11:59:20;23.57;51.92
66670;DHT22;53568;52.164;4.472;2022-07-29T12:01:59;23.63;51.64
66670;DHT22;53568;52.164;4.472;2022-07-29T12:04:27;23.57;52.05
66670;DHT22;53568;52.164;4.472;2022-07-29T12:07:05;23.58;50.86
66670;DHT22;53568;52.164;4.472;2022-07-29T12:09:31;23.61;50.22
66670;DHT22;53568;52.164;4.472;2022-07-29T12:12:10;23.70;50.89
66670;DHT22;53568;52.164;4.472;2022-07-29T12:15:17;23.61;52.41
66670;DHT22;53568;52.164;4.472;2022-07-29T12:21:06;23.91;51.50
66670;DHT22;53568;52.164;4.472;2022-07-29T12:23:38;23.97;51.34
66670;DHT22;53568;52.164;4.472;2022-07-29T12:26:27;24.07;51.06
66670;DHT22;53568;52.164;4.472;2022-07-29T12:29:01;23.97;51.13
66670;DHT22;53568;52.164;4.472;2022-07-29T12:31:40;23.98;51.06
66670;DHT22;53568;52.164;4.472;2022-07-29T12:34:13;23.98;51.07
66670;DHT22;53568;52.164;4.472;2022-07-29T12:36:41;23.90;51.81
66670;DHT22;53568;52.164;4.472;2022-07-29T12:39:14;23.97;50.13
66670;DHT22;53568;52.164;4.472;2022-07-29T12:41:44;23.82;50.12
66670;DHT22;53568;52.164;4.472;2022-07-29T12:44:10;23.74;51.83
66670;DHT22;53568;52.164;4.472;2022-07-29T12:46:36;23.81;51.47
66670;DHT22;53568;52.164;4.472;2022-07-29T12:49:03;23.70;51.30
66670;DHT22;53568;52.164;4.472;2022-07-29T12:51:42;23.97;51.02
66670;DHT22;53568;52.164;4.472;2022-07-29T12:54:23;24.02;50.63
66670;DHT22;53568;52.164;4.472;2022-07-29T12:57:00;23.96;48.95
66670;DHT22;53568;52.164;4.472;2022-07-29T12:59:35;23.91;49.91
66670;DHT22;53568;52.164;4.472;2022-07-29T13:02:01;23.75;50.61
66670;DHT22;53568;52.164;4.472;2022-07-29T13:04:31;23.68;49.55
66670;DHT22;53568;52.164;4.472;2022-07-29T13:07:03;23.68;48.48
66670;DHT22;53568;52.164;4.472;2022-07-29T13:09:44;23.74;48.24
66670;DHT22;53568;52.164;4.472;2022-07-29T13:12:14;23.94;49.60
66670;DHT22;53568;52.164;4.472;2022-07-29T13:14:58;24.07;49.93
66670;DHT22;53568;52.164;4.472;2022-07-29T13:17:24;23.94;49.63
66670;DHT22;53568;52.164;4.472;2022-07-29T13:20:06;23.87;48.51
66670;DHT22;53568;52.164;4.472;2022-07-29T13:22:34;23.73;50.49
66670;DHT22;53568;52.164;4.472;2022-07-29T13:25:02;23.70;50.91
66670;DHT22;53568;52.164;4.472;2022-07-29T13:27:38;23.54;50.85
66670;DHT22;53568;52.164;4.472;2022-07-29T13:30:12;23.81;50.85
66670;DHT22;53568;52.164;4.472;2022-07-29T13:32:48;23.82;51.15
66670;DHT22;53568;52.164;4.472;2022-07-29T13:35:17;23.84;51.57
66670;DHT22;53568;52.164;4.472;2022-07-29T13:37:44;23.90;51.15
66670;DHT22;53568;52.164;4.472;2022-07-29T13:40:11;24.00;51.72
66670;DHT22;53568;52.164;4.472;2022-07-29T13:42:49;24.12;51.19
66670;DHT22;53568;52.164;4.472;2022-07-29T13:45:35;24.02;48.83
66670;DHT22;53568;52.164;4.472;2022-07-29T13:48:21;23.82;50.79
66670;DHT22;53568;52.164;4.472;2022-07-29T13:51:02;23.74;50.89
66670;DHT22;53568;52.164;4.472;2022-07-29T13:53:30;23.80;51.48
66670;DHT22;53568;52.164;4.472;2022-07-29T13:55:56;23.96;51.56
66670;DHT22;53568;52.164;4.472;2022-07-29T13:58:27;23.88;51.34
66670;DHT22;53568;52.164;4.472;2022-07-29T14:01:03;23.96;51.26
66670;DHT22;53568;52.164;4.472;2022-07-29T14:03:31;24.02;49.29
66670;DHT22;53568;52.164;4.472;2022-07-29T14:06:02;24.18;48.24
66670;DHT22;53568;52.164;4.472;2022-07-29T14:08:34;24.12;49.63
66670;DHT22;53568;52.164;4.472;2022-07-29T14:10:59;24.26;49.27
66670;DHT22;53568;52.164;4.472;2022-07-29T14:13:25;24.34;49.21
66670;DHT22;53568;52.164;4.472;2022-07-29T14:15:54;24.26;50.07
66670;DHT22;53568;52.164;4.472;2022-07-29T14:18:23;24.08;50.98
66670;DHT22;53568;52.164;4.472;2022-07-29T14:20:56;23.81;50.56
66670;DHT22;53568;52.164;4.472;2022-07-29T14:23:27;23.70;51.71
66670;DHT22;53568;52.164;4.472;2022-07-29T14:26:06;23.49;49.34
66670;DHT22;53568;52.164;4.472;2022-07-29T14:28:41;23.58;53.06
66670;DHT22;53568;52.164;4.472;2022-07-29T14:31:19;23.71;48.28
66670;DHT22;53568;52.164;4.472;2022-07-29T14:33:50;23.71;48.86
66670;DHT22;53568;52.164;4.472;2022-07-29T14:36:23;23.73;50.24
66670;DHT22;53568;52.164;4.472;2022-07-29T14:38:50;23.84;50.65
66670;DHT22;53568;52.164;4.472;2022-07-29T14:41:19;23.77;50.22
66670;DHT22;53568;52.164;4.472;2022-07-29T14:43:46;23.77;49.55
66670;DHT22;53568;52.164;4.472;2022-07-29T14:46:24;23.97;47.32
66670;DHT22;53568;52.164;4.472;2022-07-29T14:48:50;24.04;50.64
66670;DHT22;53568;52.164;4.472;2022-07-29T14:51:20;24.20;49.60
66670;DHT22;53568;52.164;4.472;2022-07-29T14:53:48;24.07;48.62
66670;DHT22;53568;52.164;4.472;2022-07-29T14:56:21;23.97;49.80
66670;DHT22;53568;52.164;4.472;2022-07-29T14:58:55;23.82;51.18
66670;DHT22;53568;52.164;4.472;2022-07-29T15:01:34;23.70;51.68
66670;DHT22;53568;52.164;4.472;2022-07-29T15:04:01;23.46;52.00
66670;DHT22;53568;52.164;4.472;2022-07-29T15:06:32;23.31;52.99
66670;DHT22;53568;52.164;4.472;2022-07-29T15:08:59;23.57;51.93
66670;DHT22;53568;52.164;4.472;2022-07-29T15:11:29;23.82;50.66
66670;DHT22;53568;52.164;4.472;2022-07-29T15:13:55;23.82;51.30
66670;DHT22;53568;52.164;4.472;2022-07-29T15:16:30;23.73;52.60
66670;DHT22;53568;52.164;4.472;2022-07-29T15:19:13;23.56;51.77
66670;DHT22;53568;52.164;4.472;2022-07-29T15:21:56;23.51;52.03
66670;DHT22;53568;52.164;4.472;2022-07-29T15:24:34;23.42;52.74
66670;DHT22;53568;52.164;4.472;2022-07-29T15:27:05;23.14;53.13
66670;DHT22;53568;52.164;4.472;2022-07-29T15:29:34;22.92;52.94
66670;DHT22;53568;52.164;4.472;2022-07-29T15:32:04;23.03;52.01
66670;DHT22;53568;52.164;4.472;2022-07-29T15:34:30;22.95;52.70
66670;DHT22;53568;52.164;4.472;2022-07-29T15:37:06;22.85;53.02
66670;DHT22;53568;52.164;4.472;2022-07-29T15:39:51;22.77;52.27
66670;DHT22;53568;52.164;4.472;2022-07-29T15:42:16;22.60;54.37
66670;DHT22;53568;52.164;4.472;2022-07-29T15:44:47;22.59;52.04
66670;DHT22;53568;52.164;4.472;2022-07-29T15:47:19;22.63;55.76
66670;DHT22;53568;52.164;4.472;2022-07-29T15:49:47;22.62;55.37
66670;DHT22;53568;52.164;4.472;2022-07-29T15:52:21;22.69;55.38
66670;DHT22;53568;52.164;4.472;2022-07-29T15:54:49;22.98;54.28
66670;DHT22;53568;52.164;4.472;2022-07-29T15:57:17;22.99;54.07
66670;DHT22;53568;52.164;4.472;2022-07-29T15:59:46;22.86;56.46
66670;DHT22;53568;52.164;4.472;2022-07-29T16:02:29;22.90;55.94
66670;DHT22;53568;52.164;4.472;2022-07-29T16:04:59;23.02;55.04
66670;DHT22;53568;52.164;4.472;2022-07-29T16:07:25;23.02;55.97
66670;DHT22;53568;52.164;4.472;2022-07-29T16:10:19;22.92;56.17
66670;DHT22;53568;52.164;4.472;2022-07-29T16:12:54;22.83;56.59
66670;DHT22;53568;52.164;4.472;2022-07-29T16:15:23;22.66;57.64
66670;DHT22;53568;52.164;4.472;2022-07-29T16:17:51;22.58;59.03
66670;DHT22;53568;52.164;4.472;2022-07-29T16:20:17;22.51;57.92
66670;DHT22;53568;52.164;4.472;2022-07-29T16:23:06;22.53;59.51
66670;DHT22;53568;52.164;4.472;2022-07-29T16:28:36;22.62;58.59
66670;DHT22;53568;52.164;4.472;2022-07-29T16:31:12;22.60;58.12